»·PEaware :: N7723G L88-KSBP

N7723G :: L88-KSBP

FLIGHT INFORMATION

Flight Status: Arrived
Operator: Privately registered:
United States
More flights under this callsign
Pilot: Nijah A. (22345)
Aircraft: CESSNA 172 SKYHAWK
(C172)
More flights by this aircraft type
Origin: L88 New Cuyama
United States
Destination: KSBP San Luis Co Regl
United States
More flights between these airports :: More routes between these airports
Route: DIRECT
File this flight plan on PilotEdge
Remarks: CAT2
Altitude:
(Current/Filed)
8,500ft
Speed:
(Current/Filed)
110kts
Departed: 11-Jan-19 09:43 AM
Arrived: 11-Jan-19 10:17 AM
Distance/Time
Traveled:
50nm/0:34
Distance/Time
To Go:
Arrived

Flight Plot

Page will automatically refresh every two minutes.


Map Options




Map Legend


Flown Route
Filed Route
Departure Airport
Arrival Airport
Navaid (VOR, NDB)
Fix

Horizontal Profiles

Position Reports

Time Latitude Longitude Heading Altitude Ground
Speed
11-Jan-19 09:30 34.942856 -119.690285 204 2156ft 0kts
11-Jan-19 09:31 34.942856 -119.690285 204 2156ft 0kts
11-Jan-19 09:32 34.942856 -119.690285 204 2156ft 0kts
11-Jan-19 09:33 34.942856 -119.690285 204 2156ft 0kts
11-Jan-19 09:34 34.942856 -119.690285 204 2156ft 0kts
11-Jan-19 09:35 34.942856 -119.690285 204 2156ft 0kts
11-Jan-19 09:36 34.942856 -119.690285 204 2156ft 0kts
11-Jan-19 09:37 34.942616 -119.691326 190 2155ft 1kts
11-Jan-19 09:38 34.941815 -119.690146 119 2159ft 17kts
11-Jan-19 09:39 34.938902 -119.683026 114 2188ft 24kts
11-Jan-19 09:40 34.937643 -119.679965 295 2200ft 0kts
11-Jan-19 09:41 34.937644 -119.679967 294 2200ft 0kts
11-Jan-19 09:42 34.945870 -119.698429 300 2576ft 81kts
11-Jan-19 09:43 34.957469 -119.722322 294 3289ft 83kts
11-Jan-19 09:44 34.962233 -119.749774 264 3980ft 84kts
11-Jan-19 09:45 34.965667 -119.777380 304 4523ft 95kts
11-Jan-19 09:46 34.978243 -119.807542 292 5029ft 103kts
11-Jan-19 09:47 34.988920 -119.840336 290 5529ft 104kts
11-Jan-19 09:48 34.998876 -119.871937 290 6007ft 103kts
11-Jan-19 09:49 35.009078 -119.904460 290 6504ft 102kts
11-Jan-19 09:50 35.019122 -119.936526 290 7003ft 100kts
11-Jan-19 09:51 35.028970 -119.968023 290 7501ft 98kts
11-Jan-19 09:52 35.038596 -119.998851 290 7996ft 96kts
11-Jan-19 09:53 35.048159 -120.029494 290 8433ft 101kts
11-Jan-19 09:54 35.059337 -120.065135 290 8503ft 119kts
11-Jan-19 09:55 35.071336 -120.103518 290 8503ft 122kts
11-Jan-19 09:56 35.083445 -120.142425 290 8503ft 122kts
11-Jan-19 09:57 35.095594 -120.181523 290 8502ft 123kts
11-Jan-19 09:58 35.107610 -120.220244 290 8501ft 123kts
11-Jan-19 09:59 35.119671 -120.259152 290 8500ft 122kts
11-Jan-19 10:00 35.131091 -120.295928 290 8494ft 108kts
11-Jan-19 10:01 35.141548 -120.329655 290 8222ft 102kts
11-Jan-19 10:02 35.151232 -120.360947 290 7717ft 92kts
11-Jan-19 10:03 35.159762 -120.388587 290 7211ft 83kts
11-Jan-19 10:04 35.167741 -120.414503 290 6695ft 83kts
11-Jan-19 10:05 35.173965 -120.443951 283 6100ft 93kts
11-Jan-19 10:06 35.180236 -120.475392 283 5502ft 96kts
11-Jan-19 10:07 35.186653 -120.507420 285 4902ft 97kts
11-Jan-19 10:08 35.202403 -120.533391 317 4281ft 96kts
11-Jan-19 10:09 35.219170 -120.553306 317 3540ft 86kts
11-Jan-19 10:11 35.232961 -120.577072 298 2460ft 80kts
11-Jan-19 10:12 35.240173 -120.601039 287 1558ft 73kts
11-Jan-19 10:13 35.247376 -120.621853 294 1138ft 60kts
11-Jan-19 10:14 35.254791 -120.640678 288 953ft 60kts
11-Jan-19 10:15 35.259890 -120.660930 235 1053ft 66kts
11-Jan-19 10:16 35.244237 -120.653239 123 356ft 68kts
11-Jan-19 10:17 35.239891 -120.644093 51 175ft 0kts
11-Jan-19 10:18 35.239902 -120.644076 52 175ft 1kts
11-Jan-19 10:19 35.238074 -120.640538 118 189ft 20kts
11-Jan-19 10:20 35.237941 -120.637809 84 199ft 0kts
11-Jan-19 10:21 35.237941 -120.637809 84 199ft 0kts
11-Jan-19 10:22 35.237941 -120.637809 84 199ft 0kts
11-Jan-19 10:23 35.237941 -120.637809 84 199ft 0kts

Navigation Log

Ident Type
Flight plan parsing failed, navigation log unavailable